createdAt,value
2018-04-30T00:01:42.311Z,2.50
2018-04-30T00:04:09.853Z,2.83
2018-04-30T00:06:37.427Z,2.50
2018-04-30T00:09:04.951Z,2.47
2018-04-30T00:11:32.449Z,2.50
2018-04-30T00:13:59.935Z,2.53
2018-04-30T00:16:27.499Z,2.67
2018-04-30T00:18:55.005Z,2.40
2018-04-30T00:21:22.507Z,2.53
2018-04-30T00:23:50.087Z,2.23
2018-04-30T00:26:17.591Z,2.40
2018-04-30T00:28:45.105Z,2.47
2018-04-30T00:31:12.679Z,2.67
2018-04-30T00:33:40.310Z,2.33
2018-04-30T00:36:07.759Z,2.40
2018-04-30T00:38:35.253Z,2.23
2018-04-30T00:41:02.733Z,2.60
2018-04-30T00:43:30.211Z,2.20
2018-04-30T00:45:58.565Z,2.50
2018-04-30T00:48:26.074Z,2.37
2018-04-30T00:50:54.364Z,2.10
2018-04-30T00:53:21.897Z,2.47
2018-04-30T00:55:49.463Z,2.60
2018-04-30T00:58:17.014Z,2.70
2018-04-30T01:00:44.583Z,1.90
2018-04-30T01:03:12.151Z,2.43
2018-04-30T01:05:39.672Z,2.40
2018-04-30T01:08:07.153Z,2.17
2018-04-30T01:10:34.640Z,2.20
2018-04-30T01:13:02.217Z,2.40
2018-04-30T01:15:29.702Z,2.03
2018-04-30T01:17:58.073Z,2.17
2018-04-30T01:20:25.561Z,2.20
2018-04-30T01:22:53.908Z,2.20
2018-04-30T01:25:21.481Z,1.97
2018-04-30T01:27:49.045Z,2.43
2018-04-30T01:30:18.137Z,2.33
2018-04-30T01:32:45.627Z,2.30
2018-04-30T01:35:13.879Z,2.27
2018-04-30T01:37:41.456Z,2.17
2018-04-30T01:40:09.020Z,1.83
2018-04-30T01:42:36.533Z,2.00
2018-04-30T01:45:04.051Z,1.90
2018-04-30T01:47:31.545Z,1.90
2018-04-30T01:49:59.908Z,1.93
2018-04-30T01:52:27.404Z,2.00
2018-04-30T01:54:54.926Z,2.07
2018-04-30T01:57:22.399Z,1.90
2018-04-30T01:59:50.009Z,2.00
2018-04-30T02:02:17.618Z,2.00
2018-04-30T02:04:45.189Z,2.03
2018-04-30T02:07:12.675Z,1.93
2018-04-30T02:09:41.030Z,1.93
2018-04-30T02:12:08.526Z,1.90
2018-04-30T02:14:36.798Z,2.00
2018-04-30T02:17:05.072Z,1.80
2018-04-30T02:19:32.548Z,1.70
2018-04-30T02:22:00.815Z,1.73
2018-04-30T02:24:28.375Z,1.70
2018-04-30T02:26:55.900Z,1.80
2018-04-30T02:29:23.513Z,1.80
2018-04-30T02:31:50.999Z,1.90
2018-04-30T02:34:19.254Z,1.80
2018-04-30T02:36:46.810Z,2.10
2018-04-30T02:39:14.350Z,1.80
2018-04-30T02:41:41.852Z,1.97
2018-04-30T02:44:09.418Z,1.60
2018-04-30T02:46:36.964Z,1.70
2018-04-30T02:49:04.550Z,1.80
2018-04-30T02:51:32.803Z,1.80
2018-04-30T02:54:00.298Z,1.90
2018-04-30T02:56:27.794Z,1.73
2018-04-30T02:58:56.046Z,1.70
2018-04-30T03:01:23.565Z,1.70
2018-04-30T03:03:51.070Z,1.70
2018-04-30T03:06:18.585Z,1.70
2018-04-30T03:08:46.101Z,1.70
2018-04-30T03:11:13.631Z,1.70
2018-04-30T03:13:41.119Z,1.77
2018-04-30T03:16:08.605Z,1.70
2018-04-30T03:18:36.091Z,1.90
2018-04-30T03:21:04.444Z,1.50
2018-04-30T03:23:31.993Z,1.77
2018-04-30T03:25:59.573Z,1.70
2018-04-30T03:28:27.064Z,1.60
2018-04-30T03:30:55.425Z,1.60
2018-04-30T03:33:22.968Z,1.63
2018-04-30T03:35:50.453Z,1.60
2018-04-30T03:38:18.008Z,1.57
2018-04-30T03:40:45.508Z,1.53
2018-04-30T03:43:13.859Z,1.53
2018-04-30T03:45:41.345Z,1.63
2018-04-30T03:48:09.587Z,1.67
2018-04-30T03:50:37.165Z,1.73
2018-04-30T03:53:04.741Z,1.40
2018-04-30T03:55:33.109Z,1.50
2018-04-30T03:58:00.685Z,1.50
2018-04-30T04:00:40.171Z,1.50
2018-04-30T04:03:19.738Z,2.00
2018-04-30T04:05:59.101Z,1.67
2018-04-30T04:08:26.652Z,1.43
2018-04-30T04:10:54.226Z,30.77
2018-04-30T04:13:21.797Z,93.77
2018-04-30T04:15:49.353Z,72.90
2018-04-30T04:18:16.939Z,61.97
2018-04-30T04:20:44.476Z,56.90
2018-04-30T04:23:12.052Z,55.10
2018-04-30T04:25:39.628Z,51.60
2018-04-30T04:28:07.188Z,52.60
2018-04-30T04:30:36.294Z,52.07
2018-04-30T04:33:03.860Z,49.97
2018-04-30T04:35:31.370Z,50.47
2018-04-30T04:37:58.872Z,50.37
2018-04-30T04:40:26.454Z,49.50
2018-04-30T04:42:54.022Z,48.93
2018-04-30T04:45:21.580Z,48.53
2018-04-30T04:47:49.087Z,47.00
2018-04-30T04:50:16.615Z,43.20
2018-04-30T04:52:44.172Z,46.93
2018-04-30T04:55:11.742Z,39.80
2018-04-30T04:57:39.308Z,41.30
2018-04-30T05:00:06.803Z,40.23
2018-04-30T05:02:35.066Z,41.63
2018-04-30T05:05:02.572Z,41.77
2018-04-30T05:07:30.061Z,38.87
2018-04-30T05:09:57.586Z,37.47
2018-04-30T05:12:25.934Z,36.43
2018-04-30T05:14:53.516Z,36.67
2018-04-30T05:17:21.774Z,37.07
2018-04-30T05:19:49.300Z,36.80
2018-04-30T05:22:16.814Z,26.80
2018-04-30T05:24:44.310Z,32.57
2018-04-30T05:27:12.575Z,26.03
2018-04-30T05:29:40.067Z,31.63
2018-04-30T05:32:07.578Z,30.17
2018-04-30T05:34:36.706Z,30.27
2018-04-30T05:37:05.074Z,30.50
2018-04-30T05:39:32.604Z,30.63
2018-04-30T05:42:00.110Z,30.10
2018-04-30T05:44:27.602Z,27.70
2018-04-30T05:46:55.110Z,28.40
2018-04-30T05:49:22.691Z,28.40
2018-04-30T05:51:50.212Z,26.20
2018-04-30T05:54:17.716Z,27.87
2018-04-30T05:56:45.219Z,26.60
2018-04-30T05:59:13.487Z,26.37
2018-04-30T06:01:41.756Z,25.07
2018-04-30T06:04:09.268Z,26.50
2018-04-30T06:06:36.785Z,25.87
2018-04-30T06:09:04.299Z,25.43
2018-04-30T06:11:31.795Z,24.90
2018-04-30T06:13:59.378Z,25.67
2018-04-30T06:16:26.896Z,25.40
2018-04-30T06:18:54.523Z,23.97
2018-04-30T06:21:22.081Z,22.50
2018-04-30T06:23:49.646Z,23.50
2018-04-30T06:26:17.214Z,24.00
2018-04-30T06:28:44.724Z,21.70
2018-04-30T06:31:12.220Z,21.47
2018-04-30T06:33:39.816Z,21.67
2018-04-30T06:36:07.377Z,20.10
2018-04-30T06:38:34.927Z,20.07
2018-04-30T06:41:02.506Z,20.97
2018-04-30T06:43:30.000Z,21.07
2018-04-30T06:45:57.502Z,20.37
2018-04-30T06:48:25.039Z,20.57
2018-04-30T06:50:52.528Z,19.97
2018-04-30T06:53:20.063Z,19.70
2018-04-30T06:55:47.566Z,20.27
2018-04-30T06:58:15.063Z,18.73
2018-04-30T07:00:42.569Z,19.33
2018-04-30T07:03:10.074Z,17.83
2018-04-30T07:05:39.180Z,17.67
2018-04-30T07:08:06.681Z,19.17
2018-04-30T07:10:34.184Z,18.63
2018-04-30T07:13:01.763Z,19.07
2018-04-30T07:15:29.339Z,18.07
2018-04-30T07:17:56.905Z,17.10
2018-04-30T07:20:24.477Z,17.97
2018-04-30T07:22:52.741Z,17.60
2018-04-30T07:25:20.267Z,18.53
2018-04-30T07:27:47.793Z,17.93
2018-04-30T07:30:15.355Z,17.67
2018-04-30T07:32:42.881Z,16.83
2018-04-30T07:35:10.380Z,16.13
2018-04-30T07:37:37.887Z,16.83
2018-04-30T07:40:05.384Z,16.30
2018-04-30T07:42:32.954Z,16.30
2018-04-30T07:45:00.448Z,16.60
2018-04-30T07:47:28.720Z,16.47
2018-04-30T07:49:56.215Z,15.97
2018-04-30T07:52:24.563Z,15.90
2018-04-30T07:54:52.128Z,15.43
2018-04-30T07:57:19.700Z,16.17
2018-04-30T07:59:47.136Z,15.30
2018-04-30T08:02:14.723Z,15.10
2018-04-30T08:04:42.217Z,14.97
2018-04-30T08:07:10.521Z,14.10
2018-04-30T08:09:38.043Z,13.97
2018-04-30T08:12:05.607Z,14.20
2018-04-30T08:14:33.174Z,13.90
2018-04-30T08:17:01.456Z,13.80
2018-04-30T08:19:29.024Z,13.40
2018-04-30T08:21:56.541Z,13.27
2018-04-30T08:24:24.125Z,12.33
2018-04-30T08:26:51.738Z,12.80
2018-04-30T08:29:19.275Z,12.80
2018-04-30T08:31:46.865Z,12.87
2018-04-30T08:34:14.429Z,12.50
2018-04-30T08:36:42.080Z,11.93
2018-04-30T08:39:09.491Z,12.13
2018-04-30T08:41:37.007Z,11.93
2018-04-30T08:44:04.525Z,12.03
2018-04-30T08:46:32.036Z,10.80
2018-04-30T08:48:59.592Z,10.80
2018-04-30T08:51:27.172Z,11.40
2018-04-30T08:53:54.733Z,11.27
2018-04-30T08:56:22.261Z,11.83
2018-04-30T08:58:49.769Z,10.83
2018-04-30T09:01:17.267Z,10.77
2018-04-30T09:03:45.614Z,10.50
2018-04-30T09:06:13.901Z,11.33
2018-04-30T09:08:41.457Z,10.57
2018-04-30T09:11:08.953Z,9.90
2018-04-30T09:13:37.210Z,10.00
2018-04-30T09:16:04.766Z,10.53
2018-04-30T09:18:32.287Z,10.53
2018-04-30T09:20:59.814Z,9.60
2018-04-30T09:23:27.355Z,9.10
2018-04-30T09:25:54.932Z,9.20
2018-04-30T09:28:22.507Z,10.17
2018-04-30T09:30:50.001Z,10.23
2018-04-30T09:33:17.510Z,10.20
2018-04-30T09:35:44.993Z,9.63
2018-04-30T09:38:13.243Z,9.20
2018-04-30T09:40:40.843Z,9.33
2018-04-30T09:43:08.341Z,9.17
2018-04-30T09:45:35.867Z,9.53
2018-04-30T09:48:03.434Z,8.23
2018-04-30T09:50:31.004Z,9.33
2018-04-30T09:52:58.512Z,8.73
2018-04-30T09:55:26.001Z,8.27
2018-04-30T09:57:53.636Z,7.97
2018-04-30T10:00:23.765Z,8.40
2018-04-30T10:02:51.261Z,7.70
2018-04-30T10:05:18.771Z,8.03
2018-04-30T10:07:47.131Z,8.47
2018-04-30T10:10:14.645Z,7.60
2018-04-30T10:12:42.131Z,7.80
2018-04-30T10:15:09.628Z,7.40
2018-04-30T10:17:37.114Z,8.03
2018-04-30T10:20:05.477Z,7.53
2018-04-30T10:22:33.833Z,7.10
2018-04-30T10:25:01.334Z,7.20
2018-04-30T10:27:28.838Z,7.13
2018-04-30T10:29:56.346Z,7.53
2018-04-30T10:32:23.839Z,7.13
2018-04-30T10:34:52.194Z,6.93
2018-04-30T10:37:19.703Z,6.80
2018-04-30T10:39:47.197Z,6.93
2018-04-30T10:42:14.701Z,7.23
2018-04-30T10:44:42.195Z,7.00
2018-04-30T10:47:09.727Z,7.13
2018-04-30T10:49:37.206Z,6.57
2018-04-30T10:52:05.454Z,6.13
2018-04-30T10:54:32.966Z,6.17
2018-04-30T10:57:01.212Z,6.80
2018-04-30T10:59:28.778Z,6.33
2018-04-30T11:01:56.268Z,6.40
2018-04-30T11:04:24.618Z,5.70
2018-04-30T11:06:52.189Z,6.00
2018-04-30T11:09:19.760Z,5.80
2018-04-30T11:11:47.326Z,6.03
2018-04-30T11:14:14.826Z,5.90
2018-04-30T11:16:42.310Z,5.90
2018-04-30T11:19:09.796Z,5.33
2018-04-30T11:21:37.370Z,6.30
2018-04-30T11:24:04.878Z,5.37
2018-04-30T11:26:33.232Z,5.93
2018-04-30T11:29:00.742Z,5.80
2018-04-30T11:31:28.236Z,5.70
2018-04-30T11:33:55.816Z,5.07
2018-04-30T11:36:23.390Z,5.27
2018-04-30T11:38:50.900Z,5.33
2018-04-30T11:41:18.414Z,5.60
2018-04-30T11:43:45.934Z,5.70
2018-04-30T11:46:13.425Z,5.60
2018-04-30T11:48:40.927Z,5.83
2018-04-30T11:51:09.188Z,5.43
2018-04-30T11:53:36.703Z,4.97
2018-04-30T11:56:04.200Z,5.10
2018-04-30T11:58:31.785Z,5.13
2018-04-30T12:00:59.289Z,4.93
2018-04-30T12:03:26.799Z,4.63
2018-04-30T12:05:54.295Z,4.10
2018-04-30T12:08:21.780Z,5.03
2018-04-30T12:10:49.278Z,4.33
2018-04-30T12:13:16.881Z,5.37
2018-04-30T12:15:44.372Z,4.80
2018-04-30T12:18:11.878Z,4.73
2018-04-30T12:20:39.476Z,4.57
2018-04-30T12:23:07.855Z,5.03
2018-04-30T12:25:36.225Z,4.60
2018-04-30T12:28:04.521Z,4.53
2018-04-30T12:30:32.799Z,4.20
2018-04-30T12:33:00.302Z,4.13
2018-04-30T12:35:27.856Z,4.63
2018-04-30T12:37:56.206Z,4.30
2018-04-30T12:40:23.798Z,4.27
2018-04-30T12:42:52.150Z,4.63
2018-04-30T12:45:19.673Z,4.47
2018-04-30T12:47:47.169Z,4.50
2018-04-30T12:50:14.760Z,4.27
2018-04-30T12:52:42.328Z,4.00
2018-04-30T12:55:09.828Z,3.90
2018-04-30T12:57:37.412Z,4.17
2018-04-30T13:00:04.925Z,3.93
2018-04-30T13:02:32.501Z,4.20
2018-04-30T13:05:01.593Z,4.83
2018-04-30T13:07:29.154Z,3.80
2018-04-30T13:09:56.637Z,3.63
2018-04-30T13:12:24.992Z,5.43
2018-04-30T13:14:52.485Z,5.40
2018-04-30T13:17:20.858Z,15.20
2018-04-30T13:19:48.422Z,7.20
2018-04-30T13:22:15.976Z,7.43
2018-04-30T13:24:43.466Z,6.30
2018-04-30T13:27:11.819Z,6.40
2018-04-30T13:29:39.390Z,6.27
2018-04-30T13:32:07.656Z,6.60
2018-04-30T13:34:35.158Z,6.03
2018-04-30T13:37:03.513Z,5.90
2018-04-30T13:39:31.018Z,5.50
2018-04-30T13:41:59.274Z,5.30
2018-04-30T13:44:26.763Z,5.50
2018-04-30T13:46:55.122Z,5.60
2018-04-30T13:49:22.676Z,5.27
2018-04-30T13:51:50.256Z,5.50
2018-04-30T13:54:17.757Z,5.50
2018-04-30T13:56:45.253Z,5.00
2018-04-30T13:59:12.746Z,4.43
2018-04-30T14:01:40.307Z,4.30
2018-04-30T14:04:07.872Z,4.27
2018-04-30T14:06:35.440Z,4.50
2018-04-30T14:09:02.980Z,4.03
2018-04-30T14:11:30.458Z,4.20
2018-04-30T14:13:57.970Z,4.20
2018-04-30T14:16:26.074Z,4.40
2018-04-30T14:18:53.557Z,4.37
2018-04-30T14:21:21.145Z,3.87
2018-04-30T14:23:49.322Z,3.80
2018-04-30T14:26:16.844Z,3.90
2018-04-30T14:28:44.461Z,3.77
2018-04-30T14:31:12.737Z,3.93
2018-04-30T14:33:40.216Z,3.80
2018-04-30T14:36:08.467Z,3.47
2018-04-30T14:38:36.013Z,3.50
2018-04-30T14:41:03.600Z,4.00
2018-04-30T14:43:31.176Z,3.50
2018-04-30T14:45:58.670Z,3.47
2018-04-30T14:48:27.026Z,3.40
2018-04-30T14:50:54.522Z,3.47
2018-04-30T14:53:22.873Z,3.57
2018-04-30T14:55:50.436Z,3.50
2018-04-30T14:58:17.929Z,3.43
2018-04-30T15:00:46.190Z,3.60
2018-04-30T15:03:13.743Z,3.97
2018-04-30T15:05:41.254Z,3.37
2018-04-30T15:08:08.739Z,3.87
2018-04-30T15:10:36.226Z,3.60
2018-04-30T15:13:03.810Z,3.53
2018-04-30T15:15:31.384Z,3.20
2018-04-30T15:17:58.947Z,3.27
2018-04-30T15:20:26.437Z,3.37
2018-04-30T15:22:54.803Z,3.77
2018-04-30T15:25:22.298Z,3.50
2018-04-30T15:27:49.794Z,3.60
2018-04-30T15:30:17.434Z,3.20
2018-04-30T15:32:44.950Z,3.30
2018-04-30T15:35:12.432Z,3.40
2018-04-30T15:37:40.699Z,3.33
2018-04-30T15:40:08.199Z,3.30
2018-04-30T15:42:35.788Z,3.20
2018-04-30T15:45:03.280Z,2.90
2018-04-30T15:47:30.844Z,3.20
2018-04-30T15:49:58.432Z,3.00
2018-04-30T15:52:25.988Z,2.83
2018-04-30T15:54:53.551Z,3.20
2018-04-30T15:57:21.113Z,3.20
2018-04-30T15:59:48.701Z,3.27
2018-04-30T16:02:16.180Z,2.50
2018-04-30T16:04:44.434Z,3.03
2018-04-30T16:07:12.005Z,2.60
2018-04-30T16:09:39.492Z,2.77
2018-04-30T16:12:07.758Z,3.10
2018-04-30T16:14:35.242Z,3.20
2018-04-30T16:17:02.750Z,2.70
2018-04-30T16:19:30.274Z,2.93
2018-04-30T16:21:58.523Z,3.40
2018-04-30T16:24:26.080Z,3.10
2018-04-30T16:26:53.608Z,2.90
2018-04-30T16:29:21.114Z,3.30
2018-04-30T16:31:48.631Z,3.00
2018-04-30T16:34:16.122Z,2.90
2018-04-30T16:36:43.619Z,3.30
2018-04-30T16:39:11.882Z,3.20
2018-04-30T16:41:39.441Z,3.10
2018-04-30T16:44:06.954Z,3.20
2018-04-30T16:46:34.441Z,3.53
2018-04-30T16:49:01.939Z,3.47
2018-04-30T16:51:29.528Z,5.30
2018-04-30T16:53:57.083Z,5.60
2018-04-30T16:56:24.634Z,6.10
2018-04-30T16:58:52.147Z,9.03
2018-04-30T17:01:19.641Z,8.57
2018-04-30T17:03:47.162Z,9.60
2018-04-30T17:06:14.649Z,11.20
2018-04-30T17:08:42.264Z,12.90
2018-04-30T17:11:09.766Z,17.53
2018-04-30T17:13:38.121Z,26.30
2018-04-30T17:16:06.387Z,52.30
2018-04-30T17:18:33.968Z,79.97
2018-04-30T17:21:02.996Z,75.10
2018-04-30T17:23:31.264Z,70.67
2018-04-30T17:25:59.646Z,69.20
2018-04-30T17:28:27.199Z,76.20
2018-04-30T17:30:54.703Z,71.50
2018-04-30T17:33:22.228Z,69.20
2018-04-30T17:35:49.739Z,66.93
2018-04-30T17:38:17.251Z,62.50
2018-04-30T17:40:44.765Z,53.37
2018-04-30T17:43:12.285Z,50.57
2018-04-30T17:45:39.784Z,52.43
2018-04-30T17:48:07.421Z,52.13
2018-04-30T17:50:34.930Z,50.53
2018-04-30T17:53:02.441Z,48.83
2018-04-30T17:55:29.961Z,49.53
2018-04-30T17:57:57.463Z,49.10
2018-04-30T18:00:25.041Z,47.87
2018-04-30T18:02:53.333Z,45.77
2018-04-30T18:05:20.855Z,45.03
2018-04-30T18:07:48.365Z,44.03
2018-04-30T18:10:16.744Z,43.67
2018-04-30T18:12:44.307Z,39.50
2018-04-30T18:15:12.604Z,208.63
2018-04-30T18:17:40.854Z,55.00
2018-04-30T18:20:08.476Z,51.43
2018-04-30T18:22:36.095Z,50.33
2018-04-30T18:25:03.615Z,48.27
2018-04-30T18:27:31.112Z,45.17
2018-04-30T18:29:58.687Z,45.53
2018-04-30T18:32:26.942Z,44.97
2018-04-30T18:34:54.461Z,41.90
2018-04-30T18:37:22.866Z,40.57
2018-04-30T18:39:50.367Z,38.40
2018-04-30T18:42:17.969Z,37.90
2018-04-30T18:44:45.503Z,35.83
2018-04-30T18:47:13.007Z,36.13
2018-04-30T18:49:41.372Z,36.03
2018-04-30T18:52:08.953Z,35.37
2018-04-30T18:54:36.451Z,36.83
2018-04-30T18:57:03.957Z,33.77
2018-04-30T18:59:31.469Z,32.93
2018-04-30T19:01:58.983Z,32.33
2018-04-30T19:04:26.489Z,32.27
2018-04-30T19:06:54.003Z,32.57
2018-04-30T19:09:21.501Z,31.57
2018-04-30T19:11:48.992Z,31.30
2018-04-30T19:14:16.613Z,31.27
2018-04-30T19:16:44.186Z,30.60
2018-04-30T19:19:11.699Z,30.03
2018-04-30T19:21:39.296Z,25.03
2018-04-30T19:24:06.794Z,22.87
2018-04-30T19:26:35.068Z,25.40
2018-04-30T19:29:02.614Z,24.20
2018-04-30T19:31:30.128Z,24.03
2018-04-30T19:33:58.390Z,24.40
2018-04-30T19:36:26.676Z,23.87
2018-04-30T19:38:54.954Z,23.33
2018-04-30T19:41:23.232Z,23.50
2018-04-30T19:43:50.808Z,22.53
2018-04-30T19:46:19.074Z,22.67
2018-04-30T19:48:46.581Z,21.33
2018-04-30T19:51:14.113Z,21.23
2018-04-30T19:53:42.379Z,21.33
2018-04-30T19:56:09.950Z,20.67
2018-04-30T19:58:37.451Z,21.13
2018-04-30T20:01:04.986Z,20.00
2018-04-30T20:03:32.561Z,19.70
2018-04-30T20:06:00.929Z,20.23
2018-04-30T20:08:28.492Z,19.30
2018-04-30T20:10:56.020Z,18.50
2018-04-30T20:13:23.535Z,18.97
2018-04-30T20:15:51.842Z,18.60
2018-04-30T20:18:19.377Z,18.43
2018-04-30T20:20:46.921Z,17.93
2018-04-30T20:23:14.464Z,17.37
2018-04-30T20:25:41.972Z,17.10
2018-04-30T20:28:09.498Z,17.13
2018-04-30T20:30:37.089Z,16.63
2018-04-30T20:33:04.607Z,16.33
2018-04-30T20:35:32.118Z,16.30
2018-04-30T20:37:59.733Z,15.67
2018-04-30T20:40:27.196Z,16.07
2018-04-30T20:42:54.842Z,14.73
2018-04-30T20:45:23.118Z,15.07
2018-04-30T20:47:50.666Z,15.23
2018-04-30T20:50:19.791Z,14.53
2018-04-30T20:52:47.334Z,15.40
2018-04-30T20:55:14.842Z,14.47
2018-04-30T20:57:42.362Z,14.73
2018-04-30T21:00:10.764Z,15.07
2018-04-30T21:02:38.242Z,14.17
2018-04-30T21:05:06.603Z,13.43
2018-04-30T21:07:34.104Z,13.67
2018-04-30T21:10:01.628Z,13.47
2018-04-30T21:12:29.197Z,13.97
2018-04-30T21:14:56.762Z,13.53
2018-04-30T21:17:24.315Z,12.53
2018-04-30T21:19:51.791Z,13.47
2018-04-30T21:22:19.277Z,13.17
2018-04-30T21:24:47.596Z,13.50
2018-04-30T21:27:15.906Z,12.50
2018-04-30T21:29:43.480Z,12.13
2018-04-30T21:32:10.972Z,12.47
2018-04-30T21:34:39.254Z,11.87
2018-04-30T21:37:07.596Z,11.63
2018-04-30T21:39:35.105Z,11.23
2018-04-30T21:42:03.364Z,11.33
2018-04-30T21:44:30.866Z,11.80
2018-04-30T21:46:58.400Z,11.60
2018-04-30T21:49:26.790Z,12.07
2018-04-30T21:51:55.101Z,10.73
2018-04-30T21:54:22.636Z,11.63
2018-04-30T21:56:50.900Z,10.03
2018-04-30T21:59:18.465Z,10.40
2018-04-30T22:01:46.045Z,10.23
2018-04-30T22:04:13.546Z,10.47
2018-04-30T22:06:41.054Z,10.57
2018-04-30T22:09:08.588Z,9.93
2018-04-30T22:11:36.193Z,9.90
2018-04-30T22:14:04.474Z,9.60
2018-04-30T22:16:32.048Z,9.70
2018-04-30T22:18:59.604Z,8.87
2018-04-30T22:21:27.094Z,9.27
2018-04-30T22:23:55.440Z,9.43
2018-04-30T22:26:23.031Z,9.00
2018-04-30T22:28:50.514Z,9.90
2018-04-30T22:31:18.784Z,10.10
2018-04-30T22:33:47.144Z,9.17
2018-04-30T22:36:14.638Z,8.70
2018-04-30T22:38:43.001Z,8.60
2018-04-30T22:41:10.572Z,8.63
2018-04-30T22:43:38.078Z,8.47
2018-04-30T22:46:05.574Z,8.80
2018-04-30T22:48:33.071Z,9.00
2018-04-30T22:51:00.622Z,7.73
2018-04-30T22:53:28.124Z,8.70
2018-04-30T22:55:55.626Z,9.13
2018-04-30T22:58:23.229Z,7.27
2018-04-30T23:00:50.743Z,8.00
2018-04-30T23:03:18.238Z,7.53
2018-04-30T23:05:45.807Z,8.23
2018-04-30T23:08:13.307Z,7.23
2018-04-30T23:10:41.656Z,7.27
2018-04-30T23:13:09.228Z,7.13
2018-04-30T23:15:36.851Z,7.80
2018-04-30T23:18:04.341Z,7.00
2018-04-30T23:20:31.884Z,7.10
2018-04-30T23:22:59.434Z,7.37
2018-04-30T23:25:26.948Z,7.17
2018-04-30T23:27:55.331Z,7.77
2018-04-30T23:30:22.892Z,7.03
2018-04-30T23:32:50.511Z,6.90
2018-04-30T23:35:18.012Z,6.67
2018-04-30T23:37:45.601Z,7.20
2018-04-30T23:40:13.172Z,6.73
2018-04-30T23:42:40.680Z,6.80
2018-04-30T23:45:08.173Z,6.13
2018-04-30T23:47:35.759Z,6.07
2018-04-30T23:50:03.370Z,5.93
2018-04-30T23:52:30.907Z,6.50
2018-04-30T23:54:58.401Z,6.47
2018-04-30T23:57:25.912Z,6.07
2018-04-30T23:59:53.442Z,5.80
